PWSweather.com
Personal Weather Stations
Station Observations
SHAHALMS1
Eftra, Falkenberg, HA

EftraFalkenberg, HA

Lat: 56.85, Lon: 12.65

Elevation: 140

Station Type:

http://hem.passagen.se/risarp101

High Low Average
Temperature 71.2°F21.8°C 55.6°F13.1°C 63.7°F17.6°C
Dew Point 57.8°F14.3°C 49.3°F9.6°C 53.7°F12.1°C
Winds 9.9 mph 15.9 kmh Calm Calm 5.0 mph SW8.0 kmh SW
Wind Gusts 25.4 mph40.9 kmh -- 10.0 mph16.1 kmh
Humidity 87% 55% 71%
Pressure 29.98 in1015.2 mb 29.74 in1007.1 mb -
Precipitation 0.53 in13.5 mm - -
Hour Temp Dew Point Humidity Winds Wind Gusts Pressure Precip Precip Rate Daily Precip Total
12:00 AM 62.1°F16.7°C 49.3°F9.6°C 63% 7.6 mph S12.2 kmh S 9.3 mph15.0 kmh 29.98 in1015.2 mb 0.00 in0.0 mm 0.00 in0.0 mm 0.00 in0.0 mm
12:15 AM 61.9°F16.6°C 49.6°F9.8°C 64% 5.0 mph W8.0 kmh W 7.9 mph12.7 kmh 29.98 in1015.2 mb 0.00 in0.0 mm 0.00 in0.0 mm 0.00 in0.0 mm
12:30 AM 61.7°F16.5°C 49.8°F9.9°C 65% 4.9 mph W7.9 kmh W 7.2 mph11.6 kmh 29.98 in1015.2 mb 0.00 in0.0 mm 0.00 in0.0 mm 0.00 in0.0 mm
12:45 AM 61.7°F16.5°C 50.2°F10.1°C 66% 5.8 mph W9.3 kmh W 7.2 mph11.6 kmh 29.98 in1015.2 mb 0.00 in0.0 mm 0.00 in0.0 mm 0.00 in0.0 mm
01:00 AM 61.3°F16.3°C 50.3°F10.2°C 67% 5.8 mph W9.3 kmh W 7.2 mph11.6 kmh 29.98 in1015.2 mb 0.00 in0.0 mm 0.00 in0.0 mm 0.00 in0.0 mm
01:15 AM 61.5°F16.4°C 50.5°F10.3°C 67% 5.8 mph W9.3 kmh W 7.2 mph11.6 kmh 29.98 in1015.2 mb 0.00 in0.0 mm 0.00 in0.0 mm 0.00 in0.0 mm
01:30 AM 61.3°F16.3°C 50.3°F10.2°C 67% 5.8 mph W9.3 kmh W 7.2 mph11.6 kmh 29.98 in1015.2 mb 0.00 in0.0 mm 0.00 in0.0 mm 0.00 in0.0 mm
01:45 AM 61.3°F16.3°C 50.3°F10.2°C 67% 7.9 mph S12.7 kmh S 9.7 mph15.6 kmh 29.98 in1015.2 mb 0.00 in0.0 mm 0.00 in0.0 mm 0.00 in0.0 mm
02:00 AM 61.3°F16.3°C 50.3°F10.2°C 67% 3.9 mph WSW6.3 kmh WSW 9.7 mph15.6 kmh 29.95 in1014.2 mb 0.00 in0.0 mm 0.00 in0.0 mm 0.00 in0.0 mm
02:15 AM 61.7°F16.5°C 51.0°F10.6°C 68% 0.7 mph W1.1 kmh W 5.4 mph8.7 kmh 29.95 in1014.2 mb 0.00 in0.0 mm 0.00 in0.0 mm 0.00 in0.0 mm
02:30 AM 60.8°F16.0°C 52.5°F11.4°C 74% 3.4 mph SW5.5 kmh SW 14.0 mph22.5 kmh 29.95 in1014.2 mb 0.19 in4.8 mm 0.76 in19.3 mm 0.18 in4.6 mm
02:45 AM 59.5°F15.3°C 52.3°F11.3°C 77% 6.0 mph S9.7 kmh S 14.0 mph22.5 kmh 29.98 in1015.2 mb 0.19 in4.8 mm 0.00 in0.0 mm 0.18 in4.6 mm
03:00 AM 58.8°F14.9°C 52.3°F11.3°C 79% 3.5 mph S5.6 kmh S 9.7 mph15.6 kmh 29.98 in1015.2 mb 0.19 in4.8 mm 0.00 in0.0 mm 0.18 in4.6 mm
03:15 AM 58.6°F14.8°C 52.8°F11.6°C 81% 2.9 mph S4.7 kmh S 10.4 mph16.7 kmh 29.98 in1015.2 mb 0.19 in4.8 mm 0.00 in0.0 mm 0.18 in4.6 mm
03:30 AM 58.8°F14.9°C 53.3°F11.8°C 82% 5.0 mph S8.0 kmh S 14.0 mph22.5 kmh 29.98 in1015.2 mb 0.00 in0.0 mm 0.00 in0.0 mm 0.18 in4.6 mm
03:45 AM 59.0°F15.0°C 54.2°F12.3°C 84% 6.7 mph S10.8 kmh S 15.4 mph24.8 kmh 29.98 in1015.2 mb 0.00 in0.0 mm 0.00 in0.0 mm 0.18 in4.6 mm
04:00 AM 59.0°F15.0°C 54.2°F12.3°C 84% 5.7 mph S9.2 kmh S 12.5 mph20.1 kmh 29.95 in1014.2 mb 0.00 in0.0 mm 0.00 in0.0 mm 0.18 in4.6 mm
04:15 AM 59.0°F15.0°C 54.2°F12.3°C 84% 4.5 mph S7.2 kmh S 11.5 mph18.5 kmh 29.95 in1014.2 mb 0.00 in0.0 mm 0.00 in0.0 mm 0.18 in4.6 mm
04:30 AM 59.2°F15.1°C 54.3°F12.4°C 84% 6.0 mph S9.7 kmh S 15.4 mph24.8 kmh 29.95 in1014.2 mb 0.00 in0.0 mm 0.00 in0.0 mm 0.18 in4.6 mm
04:45 AM 59.0°F15.0°C 53.8°F12.1°C 83% 2.7 mph S4.3 kmh S 10.4 mph16.7 kmh 29.95 in1014.2 mb 0.00 in0.0 mm 0.00 in0.0 mm 0.18 in4.6 mm
05:00 AM 58.5°F14.7°C 53.3°F11.8°C 83% 0.8 mph SSE1.3 kmh SSE 6.1 mph9.8 kmh 29.95 in1014.2 mb 0.00 in0.0 mm 0.00 in0.0 mm 0.18 in4.6 mm
05:15 AM 58.6°F14.8°C 53.5°F11.9°C 83% 2.1 mph SE3.4 kmh SE 10.4 mph16.7 kmh 29.95 in1014.2 mb 0.00 in0.0 mm 0.00 in0.0 mm 0.18 in4.6 mm
05:30 AM 58.6°F14.8°C 53.5°F11.9°C 83% 5.2 mph SE8.4 kmh SE 12.2 mph19.6 kmh 29.95 in1014.2 mb 0.00 in0.0 mm 0.00 in0.0 mm 0.18 in4.6 mm
05:45 AM 58.8°F14.9°C 53.7°F12.1°C 83% 2.5 mph E4.0 kmh E 8.6 mph13.8 kmh 29.92 in1013.2 mb 0.00 in0.0 mm 0.00 in0.0 mm 0.18 in4.6 mm
06:00 AM 59.4°F15.2°C 54.5°F12.5°C 84% 3.2 mph E5.1 kmh E 8.6 mph13.8 kmh 29.92 in1013.2 mb 0.00 in0.0 mm 0.00 in0.0 mm 0.18 in4.6 mm
06:15 AM 60.1°F15.6°C 55.2°F12.9°C 84% 3.8 mph E6.1 kmh E 10.4 mph16.7 kmh 29.89 in1012.2 mb 0.00 in0.0 mm 0.00 in0.0 mm 0.18 in4.6 mm
06:30 AM 60.1°F15.6°C 54.9°F12.7°C 83% 7.0 mph E11.3 kmh E 14.0 mph22.5 kmh 29.92 in1013.2 mb 0.00 in0.0 mm 0.00 in0.0 mm 0.18 in4.6 mm
06:45 AM 60.6°F15.9°C 55.4°F13.0°C 83% 4.9 mph E7.9 kmh E 10.4 mph16.7 kmh 29.92 in1013.2 mb 0.00 in0.0 mm 0.00 in0.0 mm 0.18 in4.6 mm
07:00 AM 61.5°F16.4°C 55.6°F13.1°C 81% 3.3 mph ESE5.3 kmh ESE 11.5 mph18.5 kmh 29.92 in1013.2 mb 0.00 in0.0 mm 0.00 in0.0 mm 0.18 in4.6 mm
07:15 AM 62.8°F17.1°C 56.2°F13.4°C 79% 6.6 mph ESE10.6 kmh ESE 11.5 mph18.5 kmh 29.92 in1013.2 mb 0.00 in0.0 mm 0.00 in0.0 mm 0.18 in4.6 mm
07:30 AM 63.5°F17.5°C 56.2°F13.4°C 77% 3.6 mph SE5.8 kmh SE 12.2 mph19.6 kmh 29.92 in1013.2 mb 0.00 in0.0 mm 0.00 in0.0 mm 0.18 in4.6 mm
07:45 AM 64.8°F18.2°C 56.6°F13.7°C 75% 6.2 mph SE10.0 kmh SE 15.7 mph25.3 kmh 29.92 in1013.2 mb 0.00 in0.0 mm 0.00 in0.0 mm 0.18 in4.6 mm
08:00 AM 65.8°F18.8°C 56.2°F13.4°C 71% 6.4 mph SE10.3 kmh SE 19.3 mph31.1 kmh 29.92 in1013.2 mb 0.00 in0.0 mm 0.00 in0.0 mm 0.18 in4.6 mm
08:15 AM 65.5°F18.6°C 55.4°F13.0°C 70% 9.9 mph SE15.9 kmh SE 12.2 mph19.6 kmh 29.89 in1012.2 mb 0.00 in0.0 mm 0.00 in0.0 mm 0.18 in4.6 mm
08:30 AM 65.8°F18.8°C 56.2°F13.4°C 71% 4.4 mph SE7.1 kmh SE 6.1 mph9.8 kmh 29.89 in1012.2 mb 0.00 in0.0 mm 0.00 in0.0 mm 0.18 in4.6 mm
08:45 AM 67.3°F19.6°C 57.2°F14.0°C 70% 5.0 mph SE8.0 kmh SE 12.9 mph20.8 kmh 29.86 in1011.2 mb 0.00 in0.0 mm 0.00 in0.0 mm 0.18 in4.6 mm
09:00 AM 68.7°F20.4°C 56.9°F13.8°C 66% 4.5 mph SE7.2 kmh SE 12.2 mph19.6 kmh 29.86 in1011.2 mb 0.00 in0.0 mm 0.00 in0.0 mm 0.18 in4.6 mm
09:15 AM 69.1°F20.6°C 55.1°F12.8°C 61% 5.1 mph S8.2 kmh S 16.1 mph25.9 kmh 29.86 in1011.2 mb 0.00 in0.0 mm 0.00 in0.0 mm 0.18 in4.6 mm
09:30 AM 69.1°F20.6°C 54.1°F12.3°C 59% 7.6 mph S12.2 kmh S 20.0 mph32.2 kmh 29.86 in1011.2 mb 0.00 in0.0 mm 0.00 in0.0 mm 0.18 in4.6 mm
09:45 AM 69.1°F20.6°C 54.1°F12.3°C 59% 8.6 mph S13.8 kmh S 18.3 mph29.5 kmh 29.83 in1010.2 mb 0.00 in0.0 mm 0.00 in0.0 mm 0.18 in4.6 mm
10:00 AM 70.0°F21.1°C 55.0°F12.8°C 59% 4.9 mph S7.9 kmh S 9.7 mph15.6 kmh 29.86 in1011.2 mb 0.00 in0.0 mm 0.00 in0.0 mm 0.18 in4.6 mm
10:15 AM 69.6°F20.9°C 54.2°F12.3°C 58% 9.7 mph S15.6 kmh S 15.4 mph24.8 kmh 29.89 in1012.2 mb 0.00 in0.0 mm 0.00 in0.0 mm 0.18 in4.6 mm
10:30 AM 66.6°F19.2°C 53.1°F11.7°C 62% 8.4 mph S13.5 kmh S 10.4 mph16.7 kmh 29.86 in1011.2 mb 0.00 in0.0 mm 0.00 in0.0 mm 0.18 in4.6 mm
10:45 AM 66.4°F19.1°C 55.1°F12.8°C 67% 2.5 mph S4.0 kmh S 9.3 mph15.0 kmh 29.86 in1011.2 mb 0.00 in0.0 mm 0.00 in0.0 mm 0.18 in4.6 mm
11:00 AM 68.4°F20.2°C 57.8°F14.3°C 69% 5.6 mph WSW9.0 kmh WSW 9.3 mph15.0 kmh 29.86 in1011.2 mb 0.00 in0.0 mm 0.00 in0.0 mm 0.18 in4.6 mm
11:15 AM 68.4°F20.2°C 57.0°F13.9°C 67% 1.9 mph SW3.1 kmh SW 6.4 mph10.3 kmh 29.86 in1011.2 mb 0.00 in0.0 mm 0.00 in0.0 mm 0.18 in4.6 mm
11:30 AM 68.5°F20.3°C 56.7°F13.7°C 66% 6.7 mph W10.8 kmh W 8.6 mph13.8 kmh 29.86 in1011.2 mb 0.00 in0.0 mm 0.00 in0.0 mm 0.18 in4.6 mm
11:45 AM 69.3°F20.7°C 56.1°F13.4°C 63% 5.6 mph W9.0 kmh W 15.7 mph25.3 kmh 29.83 in1010.2 mb 0.00 in0.0 mm 0.00 in0.0 mm 0.18 in4.6 mm
12:00 PM 70.0°F21.1°C 56.4°F13.6°C 62% 5.3 mph W8.5 kmh W 12.9 mph20.8 kmh 29.83 in1010.2 mb 0.00 in0.0 mm 0.00 in0.0 mm 0.18 in4.6 mm
01:32 PM 70.5°F21.4°C 56.0°F13.3°C 60% 4.9 mph S7.9 kmh S 6.1 mph9.8 kmh 29.83 in1010.2 mb 0.00 in0.0 mm 0.00 in0.0 mm 0.18 in4.6 mm
01:42 PM 70.7°F21.5°C 55.7°F13.2°C 59% 8.7 mph N14.0 kmh N 10.7 mph17.2 kmh 29.83 in1010.2 mb 0.00 in0.0 mm 0.00 in0.0 mm 0.18 in4.6 mm
01:52 PM 71.2°F21.8°C 56.2°F13.4°C 59% 7.4 mph N11.9 kmh N 10.7 mph17.2 kmh 29.83 in1010.2 mb 0.00 in0.0 mm 0.00 in0.0 mm 0.18 in4.6 mm
02:02 PM 71.2°F21.8°C 55.2°F12.9°C 57% 8.4 mph W13.5 kmh W 10.4 mph16.7 kmh 29.83 in1010.2 mb 0.00 in0.0 mm 0.00 in0.0 mm 0.18 in4.6 mm
02:12 PM 70.5°F21.4°C 55.0°F12.8°C 58% 9.6 mph W15.4 kmh W 11.8 mph19.0 kmh 29.83 in1010.2 mb 0.00 in0.0 mm 0.00 in0.0 mm 0.18 in4.6 mm
02:22 PM 70.9°F21.6°C 55.4°F13.0°C 58% 3.5 mph NE5.6 kmh NE 4.3 mph6.9 kmh 29.83 in1010.2 mb 0.00 in0.0 mm 0.00 in0.0 mm 0.18 in4.6 mm
02:32 PM 71.2°F21.8°C 55.7°F13.2°C 58% 8.1 mph S13.0 kmh S 10.0 mph16.1 kmh 29.83 in1010.2 mb 0.00 in0.0 mm 0.00 in0.0 mm 0.18 in4.6 mm
02:42 PM 70.9°F21.6°C 54.9°F12.7°C 57% 9.6 mph W15.4 kmh W 11.8 mph19.0 kmh 29.83 in1010.2 mb 0.00 in0.0 mm 0.00 in0.0 mm 0.18 in4.6 mm
02:52 PM 71.1°F21.7°C 55.5°F13.1°C 58% 7.0 mph S11.3 kmh S 8.6 mph13.8 kmh 29.83 in1010.2 mb 0.00 in0.0 mm 0.00 in0.0 mm 0.18 in4.6 mm
03:02 PM 70.9°F21.6°C 54.9°F12.7°C 57% 3.2 mph N5.1 kmh N 3.9 mph6.3 kmh 29.80 in1009.1 mb 0.00 in0.0 mm 0.00 in0.0 mm 0.18 in4.6 mm
03:12 PM 71.2°F21.8°C 55.2°F12.9°C 57% 6.4 mph W10.3 kmh W 7.9 mph12.7 kmh 29.80 in1009.1 mb 0.00 in0.0 mm 0.00 in0.0 mm 0.18 in4.6 mm
03:22 PM 71.1°F21.7°C 55.1°F12.8°C 57% 5.5 mph W8.9 kmh W 7.9 mph12.7 kmh 29.80 in1009.1 mb 0.00 in0.0 mm 0.00 in0.0 mm 0.18 in4.6 mm
03:32 PM 70.7°F21.5°C 53.7°F12.1°C 55% 3.5 mph W5.6 kmh W 4.3 mph6.9 kmh 29.80 in1009.1 mb 0.00 in0.0 mm 0.00 in0.0 mm 0.18 in4.6 mm
03:42 PM 69.8°F21.0°C 53.4°F11.9°C 56% 3.5 mph W5.6 kmh W 4.3 mph6.9 kmh 29.80 in1009.1 mb 0.00 in0.0 mm 0.00 in0.0 mm 0.18 in4.6 mm
03:52 PM 68.9°F20.5°C 52.6°F11.4°C 56% 3.5 mph W5.6 kmh W 4.3 mph6.9 kmh 29.80 in1009.1 mb 0.00 in0.0 mm 0.00 in0.0 mm 0.18 in4.6 mm
04:02 PM 68.2°F20.1°C 51.9°F11.1°C 56% 6.4 mph W10.3 kmh W 7.9 mph12.7 kmh 29.80 in1009.1 mb 0.00 in0.0 mm 0.00 in0.0 mm 0.18 in4.6 mm
04:12 PM 67.5°F19.7°C 52.6°F11.4°C 59% 6.4 mph W10.3 kmh W 7.9 mph12.7 kmh 29.80 in1009.1 mb 0.00 in0.0 mm 0.00 in0.0 mm 0.18 in4.6 mm
04:22 PM 66.4°F19.1°C 53.0°F11.7°C 62% 6.4 mph W10.3 kmh W 7.9 mph12.7 kmh 29.83 in1010.2 mb 0.00 in0.0 mm 0.00 in0.0 mm 0.18 in4.6 mm
04:32 PM 65.7°F18.7°C 54.0°F12.2°C 66% 6.4 mph W10.3 kmh W 7.9 mph12.7 kmh 29.80 in1009.1 mb 0.00 in0.0 mm 0.00 in0.0 mm 0.18 in4.6 mm
04:42 PM 64.4°F18.0°C 53.6°F12.0°C 68% 2.0 mph S3.2 kmh S 2.5 mph4.0 kmh 29.80 in1009.1 mb 0.05 in1.3 mm 0.30 in7.6 mm 0.23 in5.8 mm
04:52 PM 64.9°F18.3°C 55.3°F12.9°C 71% 1.0 mph S1.6 kmh S 2.5 mph4.0 kmh 29.80 in1009.1 mb 0.05 in1.3 mm 0.00 in0.0 mm 0.23 in5.8 mm
05:02 PM 65.7°F18.7°C 56.0°F13.3°C 71% Calm Calm -- 29.80 in1009.1 mb 0.05 in1.3 mm 0.00 in0.0 mm 0.23 in5.8 mm
05:12 PM 66.0°F18.9°C 56.7°F13.7°C 72% 5.5 mph S8.9 kmh S 6.8 mph10.9 kmh 29.80 in1009.1 mb 0.05 in1.3 mm 0.00 in0.0 mm 0.23 in5.8 mm
05:15 PM 65.7°F18.7°C 53.1°F11.7°C 64% 3.6 mph WSW5.8 kmh WSW 6.8 mph10.9 kmh 29.77 in1008.1 mb 0.00 in0.0 mm 0.00 in0.0 mm 0.23 in5.8 mm
05:22 PM 65.5°F18.6°C 55.4°F13.0°C 70% 1.2 mph W1.9 kmh W 1.4 mph2.3 kmh 29.80 in1009.1 mb 0.05 in1.3 mm 0.43 in10.9 mm 0.23 in5.8 mm
05:25 PM 65.5°F18.6°C 55.0°F12.8°C 69% 3.8 mph W6.1 kmh W 4.7 mph7.6 kmh 29.80 in1009.1 mb 0.00 in0.0 mm 0.00 in0.0 mm 0.23 in5.8 mm
05:30 PM 64.8°F18.2°C 53.5°F11.9°C 67% 4.7 mph SSW7.6 kmh SSW 10.7 mph17.2 kmh 29.77 in1008.1 mb 0.00 in0.0 mm 0.00 in0.0 mm 0.23 in5.8 mm
05:32 PM 65.7°F18.7°C 56.0°F13.3°C 71% 4.1 mph W6.6 kmh W 5.0 mph8.0 kmh 29.80 in1009.1 mb 0.05 in1.3 mm 1.50 in38.1 mm 0.23 in5.8 mm
05:45 PM 65.1°F18.4°C 55.1°F12.8°C 70% 2.7 mph W4.3 kmh W 6.4 mph10.3 kmh 29.74 in1007.1 mb 0.00 in0.0 mm 0.00 in0.0 mm 0.23 in5.8 mm
06:00 PM 64.8°F18.2°C 53.9°F12.2°C 68% 2.2 mph W3.5 kmh W 7.9 mph12.7 kmh 29.74 in1007.1 mb 0.00 in0.0 mm 0.00 in0.0 mm 0.23 in5.8 mm
06:15 PM 64.8°F18.2°C 53.9°F12.2°C 68% 4.8 mph W7.7 kmh W 9.3 mph15.0 kmh 29.74 in1007.1 mb 0.00 in0.0 mm 0.00 in0.0 mm 0.23 in5.8 mm
06:30 PM 64.0°F17.8°C 52.0°F11.1°C 65% 5.8 mph W9.3 kmh W 11.8 mph19.0 kmh 29.74 in1007.1 mb 0.00 in0.0 mm 0.00 in0.0 mm 0.23 in5.8 mm
06:45 PM 63.3°F17.4°C 51.8°F11.0°C 66% 3.6 mph W5.8 kmh W 6.1 mph9.8 kmh 29.74 in1007.1 mb 0.00 in0.0 mm 0.00 in0.0 mm 0.23 in5.8 mm
07:00 PM 62.8°F17.1°C 51.7°F10.9°C 67% 3.5 mph WNW5.6 kmh WNW 9.3 mph15.0 kmh 29.74 in1007.1 mb 0.00 in0.0 mm 0.00 in0.0 mm 0.23 in5.8 mm
07:15 PM 62.2°F16.8°C 51.9°F11.1°C 69% Calm Calm -- 29.74 in1007.1 mb 0.00 in0.0 mm 0.00 in0.0 mm 0.23 in5.8 mm
07:30 PM 61.9°F16.6°C 52.0°F11.1°C 70% 1.4 mph NNW2.3 kmh NNW 7.5 mph12.1 kmh 29.74 in1007.1 mb 0.00 in0.0 mm 0.00 in0.0 mm 0.23 in5.8 mm
07:45 PM 61.5°F16.4°C 52.0°F11.1°C 71% 0.4 mph NW0.6 kmh NW 2.1 mph3.4 kmh 29.74 in1007.1 mb 0.00 in0.0 mm 0.00 in0.0 mm 0.23 in5.8 mm
08:00 PM 61.2°F16.2°C 52.4°F11.3°C 73% 3.9 mph W6.3 kmh W 10.4 mph16.7 kmh 29.74 in1007.1 mb 0.00 in0.0 mm 0.00 in0.0 mm 0.23 in5.8 mm
08:15 PM 60.6°F15.9°C 52.6°F11.4°C 75% 4.5 mph N7.2 kmh N 7.9 mph12.7 kmh 29.74 in1007.1 mb 0.00 in0.0 mm 0.00 in0.0 mm 0.23 in5.8 mm
08:30 PM 59.5°F15.3°C 52.7°F11.5°C 78% 2.1 mph N3.4 kmh N 9.3 mph15.0 kmh 29.74 in1007.1 mb 0.10 in2.5 mm 0.40 in10.2 mm 0.33 in8.4 mm
08:45 PM 58.8°F14.9°C 53.3°F11.8°C 82% 7.2 mph NW11.6 kmh NW 19.7 mph31.7 kmh 29.74 in1007.1 mb 0.10 in2.5 mm 0.00 in0.0 mm 0.33 in8.4 mm
09:00 PM 58.1°F14.5°C 52.6°F11.4°C 82% 9.5 mph WNW15.3 kmh WNW 25.4 mph40.9 kmh 29.74 in1007.1 mb 0.10 in2.5 mm 0.00 in0.0 mm 0.33 in8.4 mm
09:15 PM 56.8°F13.8°C 50.7°F10.4°C 80% 8.4 mph WNW13.5 kmh WNW 19.3 mph31.1 kmh 29.74 in1007.1 mb 0.10 in2.5 mm 0.00 in0.0 mm 0.33 in8.4 mm
09:30 PM 56.5°F13.6°C 51.4°F10.8°C 83% 9.3 mph WNW15.0 kmh WNW 25.4 mph40.9 kmh 29.77 in1008.1 mb 0.05 in1.3 mm 0.00 in0.0 mm 0.38 in9.7 mm
09:45 PM 55.8°F13.2°C 51.0°F10.6°C 84% 9.2 mph WNW14.8 kmh WNW 23.3 mph37.5 kmh 29.77 in1008.1 mb 0.09 in2.3 mm 0.16 in4.1 mm 0.43 in10.9 mm
10:00 PM 55.6°F13.1°C 51.1°F10.6°C 85% 6.5 mph WNW10.5 kmh WNW 12.5 mph20.1 kmh 29.74 in1007.1 mb 0.14 in3.6 mm 0.07 in1.8 mm 0.47 in11.9 mm
10:15 PM 55.6°F13.1°C 51.1°F10.6°C 85% 5.4 mph NW8.7 kmh NW 11.1 mph17.9 kmh 29.74 in1007.1 mb 0.14 in3.6 mm 0.00 in0.0 mm 0.47 in11.9 mm
10:30 PM 55.8°F13.2°C 51.3°F10.7°C 85% 3.3 mph NW5.3 kmh NW 8.6 mph13.8 kmh 29.77 in1008.1 mb 0.09 in2.3 mm 0.00 in0.0 mm 0.47 in11.9 mm
10:45 PM 55.9°F13.3°C 51.5°F10.8°C 85% 3.9 mph W6.3 kmh W 10.4 mph16.7 kmh 29.77 in1008.1 mb 0.10 in2.5 mm 0.04 in1.0 mm 0.53 in13.5 mm
11:00 PM 56.1°F13.4°C 52.0°F11.1°C 86% 2.7 mph NNW4.3 kmh NNW 8.9 mph14.3 kmh 29.77 in1008.1 mb 0.06 in1.5 mm 0.00 in0.0 mm 0.54 in13.7 mm
11:15 PM 56.3°F13.5°C 52.2°F11.2°C 86% 3.4 mph NNW5.5 kmh NNW 8.6 mph13.8 kmh 29.74 in1007.1 mb 0.06 in1.5 mm 0.00 in0.0 mm 0.54 in13.7 mm
11:30 PM 56.5°F13.6°C 52.3°F11.3°C 86% 3.9 mph NW6.3 kmh NW 9.7 mph15.6 kmh 29.77 in1008.1 mb 0.06 in1.5 mm 0.00 in0.0 mm 0.54 in13.7 mm
11:45 PM 56.7°F13.7°C 52.8°F11.6°C 87% 3.3 mph W5.3 kmh W 12.2 mph19.6 kmh 29.77 in1008.1 mb 0.00 in0.0 mm 0.00 in0.0 mm 0.54 in13.7 mm